Strona główna
METAR-TAF:

METAR-TAF

Lotnisko :

Kraków, Polska

Port lotniczy Kraków-Balice

Szerokość geograficzna: 50-05N, Długość geograficzna: 019-48E, wysokość: 237 m

Aktualna obserwacja pogody

Raport powstał 33 minut temu, godzina 20:00 UTC
Wiatr 6 kt od wschodnio-północny wschód
Temperatura 7°C
Wilgotność 76%
Ciśnienie 1020 hPa
Widzialność 10 km lub więcej
Brak chmur poniżej 1500 m i brak chmur cumulonimbus

METAR: EPKK 302000Z 06006KT CAVOK 07/03 Q1020

czas: 22:33 (20:33 UTC)

Prognoza

Raport powstał 3 godziny i 3 minut temu, godzina 17:30 UTC
Prognoza ważna od 30 godzina 18 UTC do 01 godzina 18 UTC
Wiatr 7 kt od wschód
Widzialność 10 km lub więcej
Brak chmur poniżej 1500 m i brak chmur cumulonimbus
Stopniowe zmiany
od 01 godzina 04 UTC do 01 godzina 07 UTC
Wiatr 17 kt od wschód
Przejściowo
od 01 godzina 07 UTC do 01 godzina 18 UTC
Wiatr 17 kt od wschód w porywach dochodzący do 27 kt

TAF: EPKK 301730Z 3018/0118 09007KT CAVOK BECMG 0104/0107 09017KT TEMPO 0107/0118 09017G27KT

Obserwacja i prognoza pogody dla ponad 4000 lotnisk (raport METAR i TAF).

Dostępne stacje oznaczono żółtymi i czerwonymi punktami na mapie.

Najedź kursorem aby zobaczyć nazwę stacji.

Kliknij aby zobaczyć obserwacje i prognozy pogody.

Aby zmienić mapę: kliknij na zielony przycisk z czarnym krzyżykiem, aby powiększyć; na zielony przycisk z myślnikiem, aby pomniejszyć; na zielone strzałki, aby przejść do map sąsiednich.


METAR-TAF: